• Join FlightAware (Why Join?)
  • Login
  • US Flag 
05:20AM EDT


 

Airport Tracker/Info


-or-


 

Live Flight TrackerFlight Track Log ✈ UCA4838 ✈ 29-Jun-2013 ✈ KROC - KEWR

Flight Track Log - Related Links

Times and Time Zones

All times are in EDT time to prevent confusion due to time zone crossing. See the UCA4838 flight status page for this flight to view local times or setup timezone preferences in your user account.

Time Position Orientation Groundspeed Altitude Reporting Facility
EDT Latitude Longitude Course Direction KTS MPH feet Rate Location/Type
05:55AM 43.0975 -77.6972 124° Southeast 138 159 1,100  Level Cleveland Center
05:56AM 43.0786 -77.6981 182° South 155 178 1,700 960 Climbing Cleveland Center
05:57AM 43.0583 -77.6367 114° Southeast 194 223 2,600 1,080 Climbing Cleveland Center
05:58AM 43.0336 -77.5694 117° Southeast 198 228 3,900 1,320 Climbing Cleveland Center
05:59AM 43.0089 -77.4997 116° Southeast 207 238 5,300 1,320 Climbing Cleveland Center
06:00AM 42.9338 -77.2508 124° Southeast  Level FlightAware Approximate
06:00AM 42.9728 -77.3994 116° Southeast 220 253 7,200  Level Cleveland Center
06:01AM 42.9002 -77.1669 124° Southeast  Level FlightAware Approximate
06:03AM 42.9153 -77.2347 115° Southeast 225 259 10,000  Level New York Center
06:04AM 42.8861 -77.1583 118° Southeast 225 259 11,100 1,080 Climbing New York Center
06:05AM 42.8589 -77.0850 117° Southeast 225 259 12,200 900 Climbing New York Center
06:06AM 42.8294 -77.0114 119° Southeast 225 259 13,000 420 Climbing New York Center
06:07AM 42.7964 -76.9264 118° Southeast 237 273 13,100  Climbing New York Center
06:08AM 42.7572 -76.8378 121° Southeast 257 296 13,100 -60 Level New York Center
06:08AM 42.7186 -76.7561 123° Southeast 262 302 13,000 -60 Descending Boston Center
06:09AM 42.6917 -76.6978 122° Southeast 280 322 13,000 -60 Level Boston Center
06:10AM 42.6456 -76.5900 120° Southeast 275 316 12,900 -60 Descending Boston Center
06:11AM 42.6050 -76.4997 121° Southeast 275 316 12,900  Level Boston Center
06:12AM 42.5644 -76.4125 122° Southeast 275 316 12,900  Level Boston Center
06:13AM 42.5256 -76.3256 121° Southeast 275 316 12,900  Level Boston Center
06:14AM 42.4869 -76.2358 120° Southeast 275 316 12,900  Level Boston Center
06:15AM 42.4483 -76.1489 121° Southeast 275 316 12,900  Level Boston Center
06:16AM 42.4014 -76.0506 123° Southeast 287 330 12,900  Level Boston Center
06:17AM 42.3664 -75.9697 120° Southeast 281 323 12,900  Level Boston Center
06:18AM 42.3253 -75.8775 121° Southeast 282 325 12,900  Level Boston Center
06:19AM 42.2861 -75.7969 123° Southeast 270 311 12,900  Level Boston Center
06:20AM 42.2450 -75.7019 120° Southeast 276 318 12,900  Level Boston Center
06:21AM 42.2058 -75.6158 122° Southeast 276 318 12,900  Level Boston Center
06:22AM 42.1644 -75.5269 122° Southeast 276 318 12,900  Level Boston Center
06:23AM 42.1231 -75.4408 123° Southeast 281 323 13,000  Climbing Boston Center
06:24AM 42.0836 -75.3522 121° Southeast 281 323 13,000  Level Boston Center
06:25AM 42.0442 -75.2639 121° Southeast 281 323 13,000  Level Boston Center
06:26AM 42.0089 -75.1700 117° Southeast 281 323 13,000  Level Boston Center
06:27AM 41.9736 -75.0792 118° Southeast 271 312 13,000  Level Boston Center
06:28AM 41.9422 -74.9969 117° Southeast 271 312 13,000  Level Boston Center
06:29AM 41.9047 -74.8950 116° Southeast 276 318 13,000 -120 Level Boston Center
06:30AM 41.8711 -74.8100 118° Southeast 276 318 12,800 -720 Descending Boston Center
06:31AM 41.8081 -74.7350 138° Southeast 276 318 11,600 -1,200 Descending Boston Center
06:32AM 41.7531 -74.6775 142° Southeast 276 318 10,400 -1,260 Descending Boston Center
06:33AM 41.6856 -74.6139 145° Southeast 276 318 9,100 -1,200 Descending Boston Center
06:34AM 41.6231 -74.6117 178° South 252 290 8,000 -1,140 Descending Boston Center
06:35AM 41.5458 -74.6175 183° South 253 291 6,900 -1,020 Descending Boston Center
06:36AM 41.4833 -74.6181 180° South 258 297 6,000 -300 Descending Boston Center
06:39AM 41.3167 -74.6000 175° South 256 295 6,000  Level New York TRACON
06:40AM 41.2667 -74.5333 135° Southeast 256 295 6,000 -180 Level New York TRACON
06:41AM 41.2167 -74.4833 143° Southeast 262 302 5,700 -600 Descending New York TRACON
06:42AM 41.1667 -74.4167 135° Southeast 269 310 4,900 -840 Descending New York TRACON
06:43AM 41.1000 -74.3500 143° Southeast 264 304 4,100 -480 Descending New York TRACON
06:44AM 41.0500 -74.2833 135° Southeast 263 303 4,000 -240 Descending New York TRACON
06:45AM 41.0000 -74.2333 143° Southeast 261 300 3,700 -540 Descending New York TRACON
06:46AM 40.9500 -74.1667 135° Southeast 255 293 3,000 -420 Descending New York TRACON
06:46AM 40.9000 -74.1167 143° Southeast 241 277 3,000 -240 Level New York TRACON
06:47AM 40.8500 -74.0833 153° Southeast 236 272 2,600 -540 Descending New York TRACON
06:48AM 40.8000 -74.1000 194° South 179 206 2,000 -600 Descending New York TRACON